Aviation Digital Data Service (ADDS)

Output produced by METARs form (1951 UTC 17 November 2019)
found at http://www.aviationweather.gov/metar/data/
 
Forecast for: COR
Text: TAF COR VEAT 171700Z 1718/1803 00000KT 3000 BR FEW020
Forecast period: 1800 UTC 17 November 2019 to 0300 UTC 18 November 2019
Forecast type: FROM: standard forecast or significant change
Winds: calm
Visibility: 1.86 miles (2.99 km)
Ceiling: at least 12,000 feet AGL
Clouds: few clouds at 2000 feet AGL
Weather: BR  (mist)